Time;durP1;ratioP1;P1;durP2;ratioP2;P2;SDS_P1;SDS_P2;PMS_P1;PMS_P2;Temp;Humidity;BMP_temperature;BMP_pressure;BME280_temperature;BME280_humidity;BME280_pressure;Samples;Min_cycle;Max_cycle;Signal;HPM_P1;HPM_P2
2022/05/03 00:01:50;;;;;;;11.18;7.70;;;;;;;;;;5050922;28;20080;-72
2022/05/03 00:04:24;;;;;;;8.30;7.47;;;;;;;;;;5050928;28;20032;-72
2022/05/03 00:07:13;;;;;;;11.10;8.40;;;;;;;;;;5042477;28;20060;-72
2022/05/03 00:09:47;;;;;;;10.57;7.90;;;;;;;;;;5049457;28;20021;-72
2022/05/03 00:12:19;;;;;;;9.40;7.97;;;;;;;;;;5051023;28;20105;-72
2022/05/03 00:14:55;;;;;;;8.52;7.68;;;;;;;;;;5051168;28;20056;-72
2022/05/03 00:17:22;;;;;;;8.93;7.95;;;;;;;;;;5032463;28;20041;-72
2022/05/03 00:19:48;;;;;;;9.80;7.88;;;;;;;;;;5050497;28;20032;-72
2022/05/03 00:22:14;;;;;;;9.50;8.45;;;;;;;;;;5050993;28;20021;-72
2022/05/03 00:24:41;;;;;;;11.00;8.35;;;;;;;;;;5050304;28;20025;-72
2022/05/03 00:27:06;;;;;;;10.65;8.50;;;;;;;;;;5038645;28;20094;-72
2022/05/03 00:29:33;;;;;;;9.25;7.85;;;;;;;;;;5039674;28;20025;-72
2022/05/03 00:32:01;;;;;;;12.18;8.05;;;;;;;;;;5050595;28;20032;-72
2022/05/03 00:34:30;;;;;;;11.25;8.32;;;;;;;;;;5049976;28;20029;-72
2022/05/03 00:36:55;;;;;;;11.38;8.35;;;;;;;;;;5036713;28;20367;-72
2022/05/03 00:39:21;;;;;;;10.63;8.73;;;;;;;;;;5039026;28;20123;-72
2022/05/03 00:42:03;;;;;;;10.40;8.07;;;;;;;;;;5030566;28;20113;-72
2022/05/03 00:45:00;;;;;;;10.30;8.30;;;;;;;;;;5030364;28;20444;-72
2022/05/03 00:47:31;;;;;;;12.57;8.82;;;;;;;;;;5045442;28;20036;-72
2022/05/03 00:50:19;;;;;;;9.18;8.25;;;;;;;;;;5030176;28;20061;-72
2022/05/03 00:53:00;;;;;;;10.10;8.43;;;;;;;;;;5032709;28;20151;-72
2022/05/03 00:55:47;;;;;;;10.95;8.65;;;;;;;;;;5037032;28;20024;-73
2022/05/03 00:58:25;;;;;;;12.95;8.80;;;;;;;;;;5036606;28;20033;-72
2022/05/03 01:01:01;;;;;;;10.25;8.40;;;;;;;;;;5049963;28;20506;-73
2022/05/03 01:03:40;;;;;;;10.55;8.90;;;;;;;;;;5040505;28;20026;-72
2022/05/03 01:06:15;;;;;;;12.07;8.38;;;;;;;;;;5040615;28;20032;-72
2022/05/03 01:08:56;;;;;;;10.20;9.13;;;;;;;;;;5033181;28;20029;-72
2022/05/03 01:11:33;;;;;;;10.82;8.95;;;;;;;;;;5041236;28;20505;-72
2022/05/03 01:14:29;;;;;;;11.10;8.23;;;;;;;;;;5029861;28;20029;-72
2022/05/03 01:17:00;;;;;;;9.70;8.50;;;;;;;;;;5042769;28;20032;-72
2022/05/03 01:19:50;;;;;;;10.07;8.63;;;;;;;;;;5036749;28;20036;-73
2022/05/03 01:22:42;;;;;;;10.13;8.48;;;;;;;;;;5033811;28;20045;-72
2022/05/03 01:25:26;;;;;;;9.67;8.37;;;;;;;;;;5029651;28;20025;-72
2022/05/03 01:28:01;;;;;;;10.43;8.70;;;;;;;;;;5039621;28;20412;-73
2022/05/03 01:30:29;;;;;;;9.15;8.23;;;;;;;;;;5038505;28;20028;-73
2022/05/03 01:33:07;;;;;;;11.38;7.93;;;;;;;;;;5037723;28;20074;-72
2022/05/03 01:35:39;;;;;;;9.60;8.32;;;;;;;;;;5030057;28;20029;-73
2022/05/03 01:38:22;;;;;;;10.10;8.90;;;;;;;;;;5047996;28;20163;-72
2022/05/03 01:41:21;;;;;;;10.55;8.95;;;;;;;;;;5029450;28;20033;-73
2022/05/03 01:44:05;;;;;;;9.88;8.85;;;;;;;;;;5029646;28;20581;-72
2022/05/03 01:46:35;;;;;;;13.80;9.13;;;;;;;;;;5037360;28;20116;-72
2022/05/03 01:52:29;;;;;;;11.30;8.95;;;;;;;;;;5042336;28;20556;-72
2022/05/03 01:55:13;;;;;;;11.93;9.35;;;;;;;;;;5044083;28;20471;-72
2022/05/03 01:58:07;;;;;;;10.95;9.68;;;;;;;;;;5035830;28;20037;-72
2022/05/03 02:00:35;;;;;;;11.82;10.18;;;;;;;;;;5031312;28;20025;-72
2022/05/03 02:03:29;;;;;;;11.13;9.45;;;;;;;;;;5029034;28;20029;-72
2022/05/03 02:06:09;;;;;;;10.10;8.82;;;;;;;;;;5036959;28;20049;-72
2022/05/03 02:09:00;;;;;;;9.88;8.88;;;;;;;;;;5030669;28;20068;-72
2022/05/03 02:12:00;;;;;;;12.20;8.77;;;;;;;;;;5027657;28;20026;-72
2022/05/03 02:14:46;;;;;;;8.88;7.78;;;;;;;;;;5032462;28;20025;-71
2022/05/03 02:17:26;;;;;;;9.10;8.10;;;;;;;;;;5031028;28;20116;-72
2022/05/03 02:20:10;;;;;;;8.88;7.22;;;;;;;;;;5041052;28;20090;-72
2022/05/03 02:22:52;;;;;;;;;;;;;;;;;;5049041;28;20402;-72
2022/05/03 02:25:32;;;;;;;8.30;7.18;;;;;;;;;;5040321;28;19974;-72
2022/05/03 02:28:03;;;;;;;8.88;7.70;;;;;;;;;;5036812;28;20029;-72
2022/05/03 02:30:32;;;;;;;9.10;8.20;;;;;;;;;;5038895;28;20020;-72
2022/05/03 02:33:05;;;;;;;8.43;7.57;;;;;;;;;;5031937;28;20494;-72
2022/05/03 02:35:34;;;;;;;9.02;7.38;;;;;;;;;;5038542;28;20037;-72
2022/05/03 02:38:06;;;;;;;9.52;7.47;;;;;;;;;;5041568;28;20025;-72
2022/05/03 02:40:32;;;;;;;10.63;8.65;;;;;;;;;;5048557;28;20025;-72
2022/05/03 02:42:58;;;;;;;11.98;9.63;;;;;;;;;;5048695;28;20021;-72
2022/05/03 02:45:23;;;;;;;11.50;10.10;;;;;;;;;;5040972;28;20139;-72
2022/05/03 02:48:14;;;;;;;11.63;10.05;;;;;;;;;;5031724;28;20029;-72
2022/05/03 02:50:51;;;;;;;13.52;9.23;;;;;;;;;;5048473;28;20021;-72
2022/05/03 02:53:41;;;;;;;11.52;8.73;;;;;;;;;;5048609;28;20401;-72
2022/05/03 02:56:17;;;;;;;9.38;8.15;;;;;;;;;;5045426;28;20120;-72
2022/05/03 02:59:18;;;;;;;10.15;9.15;;;;;;;;;;5041259;28;20080;-73
2022/05/03 03:01:59;;;;;;;10.73;9.30;;;;;;;;;;5032297;28;20017;-72
2022/05/03 03:04:54;;;;;;;11.75;9.40;;;;;;;;;;5034774;28;20508;-72
2022/05/03 03:07:20;;;;;;;10.50;8.77;;;;;;;;;;5039628;28;20099;-72
2022/05/03 03:10:06;;;;;;;11.23;9.75;;;;;;;;;;5052453;28;20053;-72
2022/05/03 03:12:43;;;;;;;9.77;8.77;;;;;;;;;;5052260;28;20052;-73
2022/05/03 03:15:14;;;;;;;10.27;8.77;;;;;;;;;;5044957;28;20025;-73
2022/05/03 03:17:47;;;;;;;12.82;9.15;;;;;;;;;;5039414;28;20506;-72
2022/05/03 03:20:14;;;;;;;12.77;8.73;;;;;;;;;;5038292;28;20512;-72
2022/05/03 03:22:41;;;;;;;10.45;9.32;;;;;;;;;;5040781;28;20079;-73
2022/05/03 03:25:09;;;;;;;9.93;8.90;;;;;;;;;;5038933;28;20026;-73
2022/05/03 03:27:36;;;;;;;11.23;8.93;;;;;;;;;;5039796;28;20511;-72
2022/05/03 03:30:05;;;;;;;11.23;9.73;;;;;;;;;;5031220;28;20033;-73
2022/05/03 03:32:31;;;;;;;11.52;9.20;;;;;;;;;;5031981;28;20517;-73
2022/05/03 03:35:00;;;;;;;10.90;8.98;;;;;;;;;;5033209;28;20029;-71
2022/05/03 03:37:28;;;;;;;11.05;8.77;;;;;;;;;;5040080;28;20177;-71
2022/05/03 03:39:54;;;;;;;11.77;9.45;;;;;;;;;;5051555;28;20017;-71
2022/05/03 03:42:19;;;;;;;10.13;9.00;;;;;;;;;;5051389;28;20029;-72
2022/05/03 03:44:46;;;;;;;10.45;9.35;;;;;;;;;;5049113;28;20067;-72
2022/05/03 03:47:11;;;;;;;10.15;9.02;;;;;;;;;;5044608;28;20029;-71
2022/05/03 03:49:37;;;;;;;10.60;9.05;;;;;;;;;;5035140;28;20166;-71
2022/05/03 03:52:03;;;;;;;11.50;9.35;;;;;;;;;;5039390;28;20053;-72
2022/05/03 03:54:30;;;;;;;10.77;9.23;;;;;;;;;;5032534;28;21149;-71
2022/05/03 03:56:56;;;;;;;13.32;9.48;;;;;;;;;;5035405;28;20052;-72
2022/05/03 03:59:22;;;;;;;10.07;8.50;;;;;;;;;;5049693;28;20029;-71
2022/05/03 04:01:50;;;;;;;10.88;9.35;;;;;;;;;;5049749;28;20028;-71
2022/05/03 04:04:21;;;;;;;12.52;9.27;;;;;;;;;;5050467;28;20032;-74
2022/05/03 04:06:46;;;;;;;12.70;9.30;;;;;;;;;;5042261;28;20021;-72
2022/05/03 04:09:12;;;;;;;10.23;9.02;;;;;;;;;;5050521;28;20500;-73
2022/05/03 04:11:45;;;;;;;12.52;9.70;;;;;;;;;;5051028;28;20080;-72
2022/05/03 04:14:11;;;;;;;;;;;;;;;;;;5043803;28;20027;-73
2022/05/03 04:16:36;;;;;;;11.90;8.82;;;;;;;;;;5048089;28;19913;-73
2022/05/03 04:19:01;;;;;;;11.10;9.35;;;;;;;;;;5037100;28;20034;-73
2022/05/03 04:21:26;;;;;;;11.45;9.20;;;;;;;;;;5030588;28;20036;-73
2022/05/03 04:23:52;;;;;;;11.35;9.55;;;;;;;;;;5030728;28;20037;-73
2022/05/03 04:26:17;;;;;;;12.43;9.80;;;;;;;;;;5038177;28;20087;-73
2022/05/03 04:28:42;;;;;;;13.40;9.98;;;;;;;;;;5039864;28;20538;-73
2022/05/03 04:31:08;;;;;;;11.20;9.60;;;;;;;;;;5030645;28;20035;-73
2022/05/03 04:33:33;;;;;;;14.05;9.48;;;;;;;;;;5029128;28;20092;-73
2022/05/03 04:35:58;;;;;;;13.20;9.35;;;;;;;;;;5030675;28;20552;-73
2022/05/03 04:38:24;;;;;;;13.43;9.48;;;;;;;;;;5046228;28;20438;-74
2022/05/03 04:40:50;;;;;;;13.02;9.95;;;;;;;;;;5040431;28;20115;-73
2022/05/03 04:43:16;;;;;;;13.00;9.68;;;;;;;;;;5035052;28;20113;-73
2022/05/03 04:45:42;;;;;;;13.52;9.80;;;;;;;;;;5036691;28;20530;-73
2022/05/03 04:48:08;;;;;;;12.90;9.25;;;;;;;;;;5046117;28;20025;-73
2022/05/03 04:50:35;;;;;;;12.88;10.20;;;;;;;;;;5033463;28;20115;-73
2022/05/03 04:53:00;;;;;;;12.75;9.65;;;;;;;;;;5038173;28;20510;-72
2022/05/03 04:55:26;;;;;;;11.52;8.27;;;;;;;;;;5041048;28;20041;-72
2022/05/03 04:57:53;;;;;;;11.20;9.63;;;;;;;;;;5040658;28;20112;-73
2022/05/03 05:00:18;;;;;;;8.95;8.05;;;;;;;;;;5032968;28;20036;-72
2022/05/03 05:02:44;;;;;;;10.70;8.65;;;;;;;;;;5038915;28;20017;-74
2022/05/03 05:05:09;;;;;;;10.00;8.85;;;;;;;;;;5040781;28;20028;-72
2022/05/03 05:07:34;;;;;;;11.27;8.07;;;;;;;;;;5049274;28;20315;-73
2022/05/03 05:12:44;;;;;;;12.18;9.00;;;;;;;;;;5038055;28;20514;-72
2022/05/03 05:15:10;;;;;;;10.57;8.77;;;;;;;;;;5041201;28;20029;-72
2022/05/03 05:17:35;;;;;;;9.13;8.07;;;;;;;;;;5031525;28;20021;-72
2022/05/03 05:20:01;;;;;;;9.20;8.18;;;;;;;;;;5040734;28;20060;-71
2022/05/03 05:22:26;;;;;;;10.70;8.90;;;;;;;;;;5031316;28;20489;-72
2022/05/03 05:24:51;;;;;;;9.95;8.20;;;;;;;;;;5037570;28;20025;-73
2022/05/03 05:27:17;;;;;;;8.82;7.90;;;;;;;;;;5029397;28;20392;-72
2022/05/03 05:29:42;;;;;;;11.32;8.70;;;;;;;;;;5029742;28;20483;-73
2022/05/03 05:32:08;;;;;;;11.73;8.45;;;;;;;;;;5036266;28;20029;-72
2022/05/03 05:34:34;;;;;;;10.02;8.57;;;;;;;;;;5041503;28;20037;-72
2022/05/03 05:36:59;;;;;;;15.35;8.90;;;;;;;;;;5035988;28;20024;-73
2022/05/03 05:39:25;;;;;;;12.93;8.57;;;;;;;;;;5047502;28;20033;-72
2022/05/03 05:41:55;;;;;;;11.85;8.63;;;;;;;;;;5043714;28;20029;-73
2022/05/03 05:44:20;;;;;;;10.88;8.45;;;;;;;;;;5046416;28;20051;-71
2022/05/03 05:46:46;;;;;;;11.73;9.85;;;;;;;;;;5045143;28;20028;-72
2022/05/03 05:49:11;;;;;;;10.38;8.73;;;;;;;;;;5031168;28;20648;-73
2022/05/03 05:51:36;;;;;;;9.63;8.25;;;;;;;;;;5041528;28;20067;-72
2022/05/03 05:54:02;;;;;;;11.38;8.57;;;;;;;;;;5037442;28;20017;-72
2022/05/03 05:56:27;;;;;;;11.93;9.23;;;;;;;;;;5039820;28;20426;-72
2022/05/03 05:58:52;;;;;;;9.85;8.70;;;;;;;;;;5034262;28;20067;-73
2022/05/03 06:01:24;;;;;;;9.98;8.82;;;;;;;;;;5034273;28;20126;-73
2022/05/03 06:03:50;;;;;;;12.27;9.10;;;;;;;;;;5036769;28;20021;-73
2022/05/03 06:06:15;;;;;;;9.75;8.45;;;;;;;;;;5035385;28;20558;-72
2022/05/03 06:08:40;;;;;;;10.25;8.48;;;;;;;;;;5036477;28;20578;-72
2022/05/03 06:11:06;;;;;;;9.30;8.30;;;;;;;;;;5035333;28;20044;-73
2022/05/03 06:13:32;;;;;;;9.38;8.43;;;;;;;;;;5026870;28;20454;-72
2022/05/03 06:16:08;;;;;;;10.43;8.40;;;;;;;;;;5033218;28;20100;-73
2022/05/03 06:18:33;;;;;;;11.35;8.73;;;;;;;;;;5034882;28;20029;-72
2022/05/03 06:20:59;;;;;;;9.57;8.57;;;;;;;;;;5044993;28;20039;-72
2022/05/03 06:23:24;;;;;;;10.48;8.63;;;;;;;;;;5044683;28;20020;-72
2022/05/03 06:25:50;;;;;;;10.60;8.77;;;;;;;;;;5036785;28;20033;-72
2022/05/03 06:28:15;;;;;;;11.73;8.80;;;;;;;;;;5024359;28;20021;-71
2022/05/03 06:30:41;;;;;;;10.35;8.65;;;;;;;;;;5027774;28;20037;-72
2022/05/03 06:33:07;;;;;;;11.85;8.02;;;;;;;;;;5035205;28;20032;-72
2022/05/03 06:35:32;;;;;;;11.77;8.52;;;;;;;;;;5040969;28;20025;-72
2022/05/03 06:37:57;;;;;;;10.38;8.88;;;;;;;;;;5031491;28;20176;-72
2022/05/03 06:40:23;;;;;;;10.80;8.90;;;;;;;;;;5035710;28;20272;-72
2022/05/03 06:42:48;;;;;;;10.93;9.35;;;;;;;;;;5046191;28;20029;-72
2022/05/03 06:45:14;;;;;;;10.05;9.05;;;;;;;;;;5046229;28;20399;-73
2022/05/03 06:47:40;;;;;;;10.52;9.10;;;;;;;;;;5043950;28;20052;-73
2022/05/03 06:50:07;;;;;;;14.15;9.10;;;;;;;;;;5034944;28;20025;-71
2022/05/03 06:52:32;;;;;;;14.65;9.77;;;;;;;;;;5046573;28;20597;-73
2022/05/03 06:54:57;;;;;;;13.10;9.18;;;;;;;;;;5048653;28;20041;-73
2022/05/03 06:57:22;;;;;;;11.98;9.00;;;;;;;;;;5039884;28;20033;-72
2022/05/03 06:59:49;;;;;;;15.48;9.35;;;;;;;;;;5029886;28;20013;-73
2022/05/03 07:02:14;;;;;;;13.68;9.80;;;;;;;;;;5038372;28;20058;-72
2022/05/03 07:04:43;;;;;;;10.95;9.18;;;;;;;;;;5044027;28;20036;-73
2022/05/03 07:07:09;;;;;;;14.77;9.45;;;;;;;;;;5045101;28;20441;-73
2022/05/03 07:09:34;;;;;;;10.75;9.15;;;;;;;;;;5035661;28;20356;-73
2022/05/03 07:11:59;;;;;;;12.20;9.35;;;;;;;;;;5031838;28;20052;-74
2022/05/03 07:14:25;;;;;;;13.93;9.45;;;;;;;;;;5028539;28;20483;-73
2022/05/03 07:16:50;;;;;;;11.50;9.30;;;;;;;;;;5025417;28;20033;-72
2022/05/03 07:24:45;;;;;;;11.55;9.00;;;;;;;;;;5035760;28;20063;-72
2022/05/03 07:27:10;;;;;;;12.00;9.05;;;;;;;;;;5038916;28;20036;-73
2022/05/03 07:29:35;;;;;;;15.15;9.68;;;;;;;;;;5045161;28;20033;-72
2022/05/03 07:32:01;;;;;;;10.88;9.10;;;;;;;;;;5031517;28;20032;-73
2022/05/03 07:34:26;;;;;;;12.55;8.95;;;;;;;;;;5032537;28;20033;-72
2022/05/03 07:36:51;;;;;;;12.70;9.23;;;;;;;;;;5028952;28;20020;-73
2022/05/03 07:39:17;;;;;;;10.13;8.88;;;;;;;;;;5044639;28;20029;-73
2022/05/03 07:41:42;;;;;;;12.80;8.52;;;;;;;;;;5042747;28;20556;-72
2022/05/03 07:44:07;;;;;;;10.88;9.57;;;;;;;;;;5036775;28;20796;-72
2022/05/03 07:46:33;;;;;;;11.90;8.95;;;;;;;;;;5041899;28;20043;-73
2022/05/03 07:48:58;;;;;;;9.88;8.88;;;;;;;;;;5035627;28;20017;-73
2022/05/03 07:51:23;;;;;;;12.43;8.30;;;;;;;;;;5033161;28;20387;-75
2022/05/03 07:53:49;;;;;;;13.63;8.13;;;;;;;;;;5033114;28;20037;-72
2022/05/03 07:56:14;;;;;;;17.35;8.15;;;;;;;;;;5035796;28;20040;-72
2022/05/03 07:58:39;;;;;;;9.48;7.97;;;;;;;;;;5038719;28;20025;-72
2022/05/03 08:01:05;;;;;;;10.93;8.30;;;;;;;;;;5037084;28;20029;-73
2022/05/03 08:03:31;;;;;;;8.57;7.60;;;;;;;;;;5034576;28;20181;-72
2022/05/03 08:05:56;;;;;;;10.90;7.93;;;;;;;;;;5038511;28;20033;-73
2022/05/03 08:08:21;;;;;;;8.65;7.72;;;;;;;;;;5042682;28;20495;-71
2022/05/03 08:10:48;;;;;;;9.57;7.63;;;;;;;;;;5042133;28;20038;-74
2022/05/03 08:13:14;;;;;;;8.93;8.02;;;;;;;;;;5033543;28;20048;-72
2022/05/03 08:18:09;;;;;;;9.18;7.13;;;;;;;;;;5038074;28;20538;-75
2022/05/03 08:20:34;;;;;;;8.68;7.80;;;;;;;;;;5044208;28;20094;-75
2022/05/03 08:23:00;;;;;;;7.88;7.07;;;;;;;;;;5047050;28;20032;-72
2022/05/03 08:25:26;;;;;;;10.27;8.50;;;;;;;;;;5047071;28;20078;-75
2022/05/03 08:27:52;;;;;;;10.23;8.30;;;;;;;;;;5045038;28;20028;-75
2022/05/03 08:30:17;;;;;;;10.23;8.15;;;;;;;;;;5047637;28;20086;-74
2022/05/03 08:32:42;;;;;;;12.15;8.43;;;;;;;;;;5038038;28;20033;-75
2022/05/03 08:35:08;;;;;;;10.32;7.63;;;;;;;;;;5038662;28;20532;-73
2022/05/03 08:43:02;;;;;;;10.10;7.70;;;;;;;;;;5045334;28;20453;-76
2022/05/03 08:45:28;;;;;;;11.07;7.25;;;;;;;;;;5041015;28;20029;-74
2022/05/03 08:47:56;;;;;;;13.95;7.35;;;;;;;;;;5045226;28;20461;-75
2022/05/03 08:50:22;;;;;;;8.60;6.55;;;;;;;;;;5040842;28;20028;-69
2022/05/03 08:52:55;;;;;;;9.55;7.47;;;;;;;;;;5045986;28;20105;-75
2022/05/03 08:55:21;;;;;;;8.80;7.00;;;;;;;;;;5045716;28;20495;-72
2022/05/03 08:57:47;;;;;;;8.77;6.75;;;;;;;;;;5043709;28;20090;-75
2022/05/03 09:00:13;;;;;;;8.85;7.38;;;;;;;;;;5045231;28;20029;-75
2022/05/03 09:02:48;;;;;;;10.13;7.10;;;;;;;;;;5045741;28;20032;-75
2022/05/03 09:05:14;;;;;;;10.23;6.72;;;;;;;;;;5045755;28;20024;-74
2022/05/03 09:07:50;;;;;;;9.27;7.38;;;;;;;;;;5042697;28;20024;-75
2022/05/03 09:10:15;;;;;;;9.35;7.72;;;;;;;;;;5044533;28;20094;-75
2022/05/03 09:12:42;;;;;;;9.65;7.85;;;;;;;;;;5046017;28;20527;-76
2022/05/03 09:15:07;;;;;;;9.63;7.70;;;;;;;;;;5045311;28;20544;-74
2022/05/03 09:17:41;;;;;;;10.95;7.53;;;;;;;;;;5045422;28;20037;-73
2022/05/03 09:26:14;;;;;;;7.68;6.80;;;;;;;;;;5034692;28;20106;-72
2022/05/03 09:28:48;;;;;;;9.40;7.35;;;;;;;;;;5042171;28;20078;-74
2022/05/03 09:31:27;;;;;;;7.40;6.60;;;;;;;;;;5045597;28;20035;-73
2022/05/03 09:33:52;;;;;;;9.70;6.68;;;;;;;;;;5045151;28;20024;-75
2022/05/03 09:36:18;;;;;;;9.27;7.70;;;;;;;;;;5044231;28;20029;-76
2022/05/03 09:38:47;;;;;;;9.20;7.63;;;;;;;;;;5043742;28;20082;-75
2022/05/03 09:41:14;;;;;;;8.02;7.32;;;;;;;;;;5042548;28;20106;-73
2022/05/03 09:44:08;;;;;;;9.45;8.00;;;;;;;;;;5045161;28;20017;-75
2022/05/03 09:46:54;;;;;;;9.93;7.57;;;;;;;;;;5044548;28;20029;-75
2022/05/03 09:49:35;;;;;;;10.95;7.82;;;;;;;;;;5044442;28;20244;-73
2022/05/03 09:52:01;;;;;;;10.90;8.18;;;;;;;;;;5038371;28;20109;-75
2022/05/03 09:54:28;;;;;;;10.00;7.75;;;;;;;;;;5044716;28;20040;-76
2022/05/03 09:56:54;;;;;;;11.20;8.18;;;;;;;;;;5037050;28;20461;-74
2022/05/03 09:59:20;;;;;;;10.00;8.93;;;;;;;;;;5045786;28;20024;-74
2022/05/03 10:01:46;;;;;;;9.43;8.10;;;;;;;;;;5040751;28;20024;-75
2022/05/03 10:04:13;;;;;;;12.38;7.80;;;;;;;;;;5043547;28;20033;-74
2022/05/03 10:06:39;;;;;;;9.65;7.72;;;;;;;;;;5044708;28;20094;-77
2022/05/03 10:09:06;;;;;;;9.48;8.05;;;;;;;;;;5042286;28;20028;-74
2022/05/03 10:11:34;;;;;;;10.02;7.72;;;;;;;;;;5044642;28;20115;-73
2022/05/03 10:13:59;;;;;;;10.40;8.15;;;;;;;;;;5045206;28;20025;-75
2022/05/03 10:22:02;;;;;;;10.88;7.95;;;;;;;;;;5025854;28;20045;-76
2022/05/03 10:24:28;;;;;;;13.48;9.10;;;;;;;;;;5025232;28;20022;-74
2022/05/03 10:27:01;;;;;;;11.90;7.95;;;;;;;;;;5037258;28;20025;-74
2022/05/03 10:29:37;;;;;;;11.75;9.57;;;;;;;;;;5045085;28;20557;-77
2022/05/03 10:32:03;;;;;;;9.80;8.05;;;;;;;;;;5058331;28;20427;-76
2022/05/03 10:34:40;;;;;;;9.40;7.88;;;;;;;;;;5061216;28;20110;-75
2022/05/03 10:37:11;;;;;;;9.93;7.50;;;;;;;;;;5046471;28;20024;-74
2022/05/03 10:39:44;;;;;;;11.23;7.85;;;;;;;;;;5044066;28;20486;-76
2022/05/03 10:42:14;;;;;;;8.30;7.47;;;;;;;;;;5046561;28;20482;-74
2022/05/03 10:44:52;;;;;;;9.65;7.32;;;;;;;;;;5041610;28;20029;-75
2022/05/03 10:47:54;;;;;;;9.50;7.55;;;;;;;;;;5047292;28;20106;-76
2022/05/03 10:50:32;;;;;;;9.85;7.72;;;;;;;;;;5044269;28;20491;-75
2022/05/03 10:52:59;;;;;;;11.70;9.00;;;;;;;;;;5045031;28;20379;-73
2022/05/03 10:55:32;;;;;;;9.50;8.50;;;;;;;;;;5045895;28;20029;-73
2022/05/03 10:58:16;;;;;;;;;;;;;;;;;;5041058;28;20025;-74
2022/05/03 11:01:00;;;;;;;11.88;7.70;;;;;;;;;;5048276;28;19912;-75
2022/05/03 11:03:26;;;;;;;11.30;7.47;;;;;;;;;;5048457;28;20035;-74
2022/05/03 11:06:26;;;;;;;10.02;6.78;;;;;;;;;;5048823;28;20029;-74
2022/05/03 11:08:58;;;;;;;9.80;7.65;;;;;;;;;;5040645;28;20513;-72
2022/05/03 11:11:47;;;;;;;10.45;7.43;;;;;;;;;;5045848;28;20056;-75
2022/05/03 11:14:22;;;;;;;11.55;7.82;;;;;;;;;;5045610;28;20053;-75
2022/05/03 11:17:10;;;;;;;9.82;6.90;;;;;;;;;;5046310;28;20509;-75
2022/05/03 11:19:37;;;;;;;9.20;7.38;;;;;;;;;;5047607;28;20106;-71
2022/05/03 11:22:09;;;;;;;8.95;6.70;;;;;;;;;;5044835;28;20021;-75
2022/05/03 11:24:36;;;;;;;8.27;6.95;;;;;;;;;;5052009;28;20024;-72
2022/05/03 11:27:07;;;;;;;8.88;6.65;;;;;;;;;;5051696;28;20429;-76
2022/05/03 11:29:35;;;;;;;9.80;6.88;;;;;;;;;;5051518;28;20044;-74
2022/05/03 11:32:01;;;;;;;12.00;7.20;;;;;;;;;;5048184;28;20105;-74
2022/05/03 11:34:28;;;;;;;12.48;8.18;;;;;;;;;;5048869;28;20040;-72
2022/05/03 11:36:53;;;;;;;11.60;7.95;;;;;;;;;;5049885;28;20025;-74
2022/05/03 11:39:20;;;;;;;8.32;7.40;;;;;;;;;;5043002;28;20043;-70
2022/05/03 11:41:47;;;;;;;9.52;8.02;;;;;;;;;;5047927;28;20513;-71
2022/05/03 11:44:13;;;;;;;11.40;8.02;;;;;;;;;;5047835;28;20029;-73
2022/05/03 11:46:40;;;;;;;10.40;7.20;;;;;;;;;;5051368;28;20032;-72
2022/05/03 11:49:09;;;;;;;11.07;7.85;;;;;;;;;;5049263;28;20025;-74
2022/05/03 11:57:16;;;;;;;8.45;6.93;;;;;;;;;;5045679;28;20640;-74
2022/05/03 11:59:42;;;;;;;8.48;7.57;;;;;;;;;;5050041;28;20397;-74
2022/05/03 12:02:21;;;;;;;9.07;7.25;;;;;;;;;;5048054;28;20115;-74
2022/05/03 12:05:04;;;;;;;8.60;6.70;;;;;;;;;;5048872;28;20033;-74
2022/05/03 12:07:41;;;;;;;6.25;5.65;;;;;;;;;;5043585;28;20060;-74
2022/05/03 12:10:19;;;;;;;8.82;6.70;;;;;;;;;;5030711;28;20021;-73
2022/05/03 12:12:46;;;;;;;8.13;5.80;;;;;;;;;;5031845;28;20055;-75
2022/05/03 12:15:24;;;;;;;7.88;6.20;;;;;;;;;;5045781;28;20044;-74
2022/05/03 12:17:54;;;;;;;7.30;5.40;;;;;;;;;;5050712;28;20055;-73
2022/05/03 12:20:19;;;;;;;9.55;6.63;;;;;;;;;;5049660;28;20386;-74
2022/05/03 12:22:44;;;;;;;9.52;6.15;;;;;;;;;;5047620;28;20096;-73
2022/05/03 12:25:10;;;;;;;9.63;5.55;;;;;;;;;;5050068;28;20028;-75
2022/05/03 12:27:35;;;;;;;7.70;6.00;;;;;;;;;;5049050;28;20025;-69
2022/05/03 12:30:10;;;;;;;10.43;5.68;;;;;;;;;;5038029;28;20029;-74
2022/05/03 12:32:36;;;;;;;7.05;5.40;;;;;;;;;;5047928;28;20029;-73
2022/05/03 12:35:02;;;;;;;7.43;6.25;;;;;;;;;;5050410;28;20393;-72
2022/05/03 12:37:28;;;;;;;7.70;5.55;;;;;;;;;;5049831;28;20031;-75
2022/05/03 12:40:01;;;;;;;7.10;6.40;;;;;;;;;;5044956;28;20033;-73
2022/05/03 12:42:26;;;;;;;6.72;6.00;;;;;;;;;;5050236;28;20033;-74
2022/05/03 12:44:54;;;;;;;10.68;6.70;;;;;;;;;;5048861;28;20029;-69
2022/05/03 12:47:21;;;;;;;9.60;5.97;;;;;;;;;;5055566;28;20032;-71
2022/05/03 12:49:47;;;;;;;7.82;5.72;;;;;;;;;;5038982;28;20103;-72
2022/05/03 12:52:13;;;;;;;8.00;6.15;;;;;;;;;;5037313;28;20060;-70
2022/05/03 12:54:43;;;;;;;6.78;5.65;;;;;;;;;;5048599;28;20032;-73
2022/05/03 12:59:54;;;;;;;10.07;6.78;;;;;;;;;;5049051;28;20401;-74
2022/05/03 13:02:20;;;;;;;10.02;6.25;;;;;;;;;;5044391;28;20029;-69
2022/05/03 13:04:45;;;;;;;6.72;6.00;;;;;;;;;;5050155;28;20025;-73
2022/05/03 13:07:11;;;;;;;6.13;5.53;;;;;;;;;;5046095;28;20032;-69
2022/05/03 13:09:36;;;;;;;8.60;5.80;;;;;;;;;;5048781;28;20517;-74
2022/05/03 13:12:01;;;;;;;6.32;5.20;;;;;;;;;;5049140;28;20021;-73
2022/05/03 13:14:28;;;;;;;6.72;5.82;;;;;;;;;;5049738;28;20394;-69
2022/05/03 13:16:54;;;;;;;10.02;5.65;;;;;;;;;;5040406;28;20595;-74
2022/05/03 13:19:19;;;;;;;12.15;5.85;;;;;;;;;;5049294;28;20035;-73
2022/05/03 13:21:45;;;;;;;7.45;5.78;;;;;;;;;;5041844;28;20116;-74
2022/05/03 13:24:12;;;;;;;6.65;5.75;;;;;;;;;;5049436;28;20391;-75
2022/05/03 13:26:39;;;;;;;6.00;4.80;;;;;;;;;;5049471;28;20029;-75
2022/05/03 13:29:16;;;;;;;5.38;4.85;;;;;;;;;;5049296;28;20082;-73
2022/05/03 13:31:43;;;;;;;6.20;5.53;;;;;;;;;;5039969;28;20025;-71
2022/05/03 13:34:10;;;;;;;7.43;5.50;;;;;;;;;;5036574;28;20480;-73
2022/05/03 13:42:05;;;;;;;10.15;5.40;;;;;;;;;;5048525;28;20102;-73
2022/05/03 13:44:33;;;;;;;8.27;5.95;;;;;;;;;;5048052;28;20067;-75
2022/05/03 13:46:58;;;;;;;7.35;5.30;;;;;;;;;;5048330;28;20082;-74
2022/05/03 13:49:24;;;;;;;6.95;5.60;;;;;;;;;;5042240;28;20033;-73
2022/05/03 13:51:49;;;;;;;6.32;5.10;;;;;;;;;;5048864;28;20028;-73
2022/05/03 13:54:15;;;;;;;6.95;5.55;;;;;;;;;;5045643;28;20029;-71
2022/05/03 13:56:40;;;;;;;7.43;6.03;;;;;;;;;;5047574;28;20036;-71
2022/05/03 13:59:06;;;;;;;7.55;5.82;;;;;;;;;;5047327;28;20107;-72
2022/05/03 14:01:33;;;;;;;10.07;6.13;;;;;;;;;;5048687;28;20021;-75
2022/05/03 14:04:02;;;;;;;5.97;5.30;;;;;;;;;;5048739;28;20108;-73
2022/05/03 14:06:28;;;;;;;8.85;5.53;;;;;;;;;;5048773;28;20083;-73
2022/05/03 14:08:54;;;;;;;10.65;5.68;;;;;;;;;;5047572;28;20671;-73
2022/05/03 14:11:19;;;;;;;8.85;5.35;;;;;;;;;;5047417;28;20115;-73
2022/05/03 14:13:44;;;;;;;5.78;4.93;;;;;;;;;;5048998;28;20025;-74
2022/05/03 14:16:10;;;;;;;7.55;4.85;;;;;;;;;;5048769;28;20466;-75
2022/05/03 14:18:35;;;;;;;8.52;5.50;;;;;;;;;;5046139;28;20029;-69
2022/05/03 14:21:00;;;;;;;7.93;6.15;;;;;;;;;;5049689;28;20013;-70
2022/05/03 14:23:26;;;;;;;9.52;5.78;;;;;;;;;;5046608;28;20064;-73
2022/05/03 14:25:51;;;;;;;9.00;6.55;;;;;;;;;;5046917;28;20053;-70
2022/05/03 14:28:19;;;;;;;7.85;6.55;;;;;;;;;;5048295;28;20028;-75
2022/05/03 14:30:45;;;;;;;8.45;5.88;;;;;;;;;;5027257;28;20040;-73
2022/05/03 14:33:10;;;;;;;10.55;6.50;;;;;;;;;;5044566;28;20056;-74
2022/05/03 14:35:36;;;;;;;8.63;5.97;;;;;;;;;;5040062;28;20446;-73
2022/05/03 14:38:01;;;;;;;7.57;5.82;;;;;;;;;;5038333;28;20037;-72
2022/05/03 14:40:26;;;;;;;8.50;5.95;;;;;;;;;;5048034;28;20158;-70
2022/05/03 14:42:52;;;;;;;12.45;7.68;;;;;;;;;;5048396;28;20493;-69
2022/05/03 14:45:18;;;;;;;11.20;6.70;;;;;;;;;;5048442;28;20021;-70
2022/05/03 14:47:44;;;;;;;8.25;6.20;;;;;;;;;;5045270;28;20032;-73
2022/05/03 14:50:11;;;;;;;8.93;6.38;;;;;;;;;;5042241;28;20100;-71
2022/05/03 14:52:37;;;;;;;8.88;6.57;;;;;;;;;;5049041;28;20032;-71
2022/05/03 14:55:03;;;;;;;9.18;7.18;;;;;;;;;;5051593;28;20029;-73
2022/05/03 15:02:57;;;;;;;10.77;6.72;;;;;;;;;;5049767;28;20044;-75
2022/05/03 15:05:34;;;;;;;12.10;6.97;;;;;;;;;;5052587;28;20024;-72
2022/05/03 15:08:01;;;;;;;10.02;6.78;;;;;;;;;;5051379;28;20043;-72
2022/05/03 15:10:28;;;;;;;10.95;8.27;;;;;;;;;;5051914;28;20502;-71
2022/05/03 15:12:54;;;;;;;10.95;7.80;;;;;;;;;;5052391;28;20029;-71
2022/05/03 15:15:21;;;;;;;10.02;8.52;;;;;;;;;;5051859;28;20417;-70
2022/05/03 15:17:49;;;;;;;9.38;7.40;;;;;;;;;;5042659;28;20021;-72
2022/05/03 15:20:19;;;;;;;8.63;6.97;;;;;;;;;;5051655;28;20033;-73
2022/05/03 15:25:28;;;;;;;7.82;6.57;;;;;;;;;;5048992;28;20039;-73
2022/05/03 15:27:54;;;;;;;11.32;7.05;;;;;;;;;;5051317;28;20029;-74
2022/05/03 15:30:20;;;;;;;7.68;6.90;;;;;;;;;;5051479;28;20108;-74
2022/05/03 15:32:46;;;;;;;9.65;6.68;;;;;;;;;;5065814;28;20031;-72
2022/05/03 15:35:12;;;;;;;10.40;7.55;;;;;;;;;;5033159;28;20037;-73
2022/05/03 15:37:38;;;;;;;9.75;7.63;;;;;;;;;;5031337;28;20109;-73
2022/05/03 15:40:10;;;;;;;9.02;7.15;;;;;;;;;;5046419;28;20116;-72
2022/05/03 15:42:37;;;;;;;9.70;7.78;;;;;;;;;;5051444;28;20080;-73
2022/05/03 15:45:04;;;;;;;6.70;6.10;;;;;;;;;;5050249;28;20021;-73